createdAt,value
2023-01-11T00:01:22.296Z,98305.41
2023-01-11T00:05:46.516Z,98301.71
2023-01-11T00:10:11.654Z,98295.06
2023-01-11T00:14:37.511Z,98295.88
2023-01-11T00:19:01.521Z,98296.30
2023-01-11T00:23:26.444Z,98288.12
2023-01-11T00:27:50.453Z,98292.07
2023-01-11T00:32:14.383Z,98292.83
2023-01-11T00:36:40.236Z,98297.67
2023-01-11T00:41:04.200Z,98308.77
2023-01-11T00:45:26.728Z,98312.70
2023-01-11T00:49:50.611Z,98316.95
2023-01-11T00:54:14.471Z,98324.08
2023-01-11T00:58:39.423Z,98327.95
2023-01-11T01:03:04.459Z,98330.49
2023-01-11T01:07:28.320Z,98332.59
2023-01-11T01:11:37.432Z,98338.52
2023-01-11T01:16:01.439Z,98343.77
2023-01-11T01:20:25.501Z,98344.23
2023-01-11T01:24:49.352Z,98346.71
2023-01-11T01:29:13.368Z,98344.70
2023-01-11T01:33:37.355Z,98339.75
2023-01-11T01:38:01.209Z,98333.45
2023-01-11T01:42:25.369Z,98323.39
2023-01-11T01:46:49.294Z,98313.09
2023-01-11T01:51:19.217Z,98317.48
2023-01-11T01:55:43.505Z,98320.81
2023-01-11T02:00:07.498Z,98321.55
2023-01-11T02:04:31.527Z,98328.62
2023-01-11T02:08:55.390Z,98336.25
2023-01-11T02:13:19.370Z,98340.46
2023-01-11T02:17:43.285Z,98347.17
2023-01-11T02:22:29.322Z,98358.15
2023-01-11T02:26:54.967Z,98371.95
2023-01-11T02:31:31.099Z,98375.34
2023-01-11T02:36:07.165Z,98379.38
2023-01-11T02:40:46.119Z,98390.08
2023-01-11T02:45:21.706Z,98397.14
2023-01-11T02:50:06.922Z,98391.25
2023-01-11T02:54:38.000Z,98387.84
2023-01-11T02:59:02.846Z,98388.54
2023-01-11T03:03:27.877Z,98395.27
2023-01-11T03:07:54.342Z,98408.73
2023-01-11T03:12:16.716Z,98414.84
2023-01-11T03:16:49.719Z,98412.23
2023-01-11T03:21:16.363Z,98407.35
2023-01-11T03:25:19.928Z,98402.17
2023-01-11T03:29:56.054Z,98396.03
2023-01-11T03:34:31.661Z,98397.95
2023-01-11T03:38:58.251Z,98395.02
2023-01-11T03:43:31.124Z,98394.80
2023-01-11T03:47:55.119Z,98397.58
2023-01-11T03:52:24.767Z,98398.66
2023-01-11T03:56:49.866Z,98412.66
2023-01-11T04:01:13.837Z,98421.13
2023-01-11T04:05:37.846Z,98423.96
2023-01-11T04:10:21.765Z,98435.94
2023-01-11T04:14:45.574Z,98433.34
2023-01-11T04:19:10.546Z,98434.23
2023-01-11T04:23:34.804Z,98429.08
2023-01-11T04:27:59.824Z,98412.55
2023-01-11T04:32:25.802Z,98424.62
2023-01-11T04:36:51.869Z,98424.38
2023-01-11T04:41:15.896Z,98426.27
2023-01-11T04:45:39.835Z,98435.78
2023-01-11T04:50:04.798Z,98441.86
2023-01-11T04:54:28.863Z,98429.86
2023-01-11T04:58:55.861Z,98433.05
2023-01-11T05:03:20.798Z,98438.91
2023-01-11T05:07:44.768Z,98432.33
2023-01-11T05:12:48.485Z,98438.10
2023-01-11T05:17:12.660Z,98431.64
2023-01-11T05:21:36.598Z,98426.63
2023-01-11T05:26:00.818Z,98445.83
2023-01-11T05:30:24.786Z,98443.24
2023-01-11T05:34:48.419Z,98438.00
2023-01-11T05:39:13.391Z,98443.00
2023-01-11T05:43:37.302Z,98443.70
2023-01-11T05:48:03.367Z,98451.39
2023-01-11T05:52:28.372Z,98455.56
2023-01-11T05:56:52.354Z,98446.50
2023-01-11T06:01:17.424Z,98445.23
2023-01-11T06:05:41.289Z,98450.42
2023-01-11T06:09:56.488Z,98457.48
2023-01-11T06:14:10.718Z,98457.91
2023-01-11T06:18:34.606Z,98458.17
2023-01-11T06:22:58.531Z,98455.31
2023-01-11T06:27:22.449Z,98452.08
2023-01-11T06:31:53.144Z,98442.17
2023-01-11T06:36:18.482Z,98445.02
2023-01-11T06:40:42.668Z,98442.35
2023-01-11T06:45:07.762Z,98448.89
2023-01-11T06:49:31.319Z,98453.52
2023-01-11T06:53:55.318Z,98464.58
2023-01-11T06:58:19.217Z,98469.88
2023-01-11T07:02:43.378Z,98485.90
2023-01-11T07:07:32.917Z,98485.70
2023-01-11T07:11:55.370Z,98495.02
2023-01-11T07:16:19.454Z,98496.11
2023-01-11T07:20:43.656Z,98496.80
2023-01-11T07:25:07.665Z,98499.23
2023-01-11T07:29:32.709Z,98508.60
2023-01-11T07:33:56.902Z,98502.48
2023-01-11T07:38:20.801Z,98509.67
2023-01-11T07:42:44.382Z,98511.89
2023-01-11T07:47:08.999Z,98519.42
2023-01-11T07:51:33.061Z,98517.46
2023-01-11T07:55:49.877Z,98514.05
2023-01-11T08:00:13.836Z,98514.77
2023-01-11T08:04:37.838Z,98515.84
2023-01-11T08:09:02.762Z,98508.60
2023-01-11T08:13:27.305Z,98503.52
2023-01-11T08:17:52.334Z,98510.20
2023-01-11T08:22:18.287Z,98503.31
2023-01-11T08:26:44.296Z,98497.22
2023-01-11T08:31:09.405Z,98499.89
2023-01-11T08:35:33.338Z,98500.30
2023-01-11T08:39:57.762Z,98503.79
2023-01-11T08:44:16.995Z,98494.90
2023-01-11T08:48:43.247Z,98487.90
2023-01-11T08:53:07.073Z,98489.34
2023-01-11T08:57:33.146Z,98502.40
2023-01-11T09:02:00.316Z,98496.30
2023-01-11T09:06:24.367Z,98489.61
2023-01-11T09:10:49.155Z,98507.13
2023-01-11T09:15:14.436Z,98506.70
2023-01-11T09:19:39.534Z,98519.98
2023-01-11T09:24:03.455Z,98516.73
2023-01-11T09:28:26.713Z,98508.20
2023-01-11T09:32:50.747Z,98515.06
2023-01-11T09:37:07.214Z,98510.41
2023-01-11T09:41:39.865Z,98504.45
2023-01-11T09:46:08.857Z,98506.21
2023-01-11T09:50:32.793Z,98498.79
2023-01-11T09:54:59.351Z,98493.48
2023-01-11T09:59:11.869Z,98492.13
2023-01-11T10:03:38.534Z,98495.48
2023-01-11T10:18:34.253Z,98504.30
2023-01-11T10:22:32.882Z,98496.88
2023-01-11T10:27:08.135Z,98489.91
2023-01-11T10:31:43.452Z,98481.59
2023-01-11T10:36:05.946Z,98471.63
2023-01-11T10:40:51.329Z,98467.50
2023-01-11T10:45:42.601Z,98470.45
2023-01-11T10:50:38.041Z,98471.59
2023-01-11T10:55:20.148Z,98465.18
2023-01-11T10:59:51.746Z,98459.14
2023-01-11T11:04:24.924Z,98455.59
2023-01-11T11:08:54.521Z,98457.54
2023-01-11T11:13:21.450Z,98449.36
2023-01-11T11:17:51.696Z,98446.78
2023-01-11T11:22:21.570Z,98445.06
2023-01-11T11:26:48.427Z,98433.84
2023-01-11T11:31:15.427Z,98432.70
2023-01-11T11:35:39.304Z,98424.86
2023-01-11T11:39:57.122Z,98410.05
2023-01-11T11:44:21.019Z,98413.13
2023-01-11T11:48:45.062Z,98414.33
2023-01-11T11:53:08.931Z,98407.01
2023-01-11T11:57:35.944Z,98403.54
2023-01-11T12:02:06.032Z,98405.17
2023-01-11T12:06:28.848Z,98405.70
2023-01-11T12:10:55.540Z,98406.66
2023-01-11T12:15:12.062Z,98405.92
2023-01-11T12:20:04.781Z,98394.83
2023-01-11T12:24:30.806Z,98397.06
2023-01-11T12:29:03.566Z,98401.35
2023-01-11T12:33:36.292Z,98390.58
2023-01-11T12:38:39.036Z,98385.93
2023-01-11T12:43:08.976Z,98384.25
2023-01-11T12:47:40.446Z,98384.34
2023-01-11T12:52:22.961Z,98389.41
2023-01-11T12:56:57.403Z,98389.05
2023-01-11T13:01:23.677Z,98393.15
2023-01-11T13:05:57.206Z,98388.92
2023-01-11T13:10:24.247Z,98384.61
2023-01-11T13:15:06.154Z,98385.94
2023-01-11T13:19:38.885Z,98398.15
2023-01-11T13:24:11.619Z,98395.90
2023-01-11T13:28:36.546Z,98395.90
2023-01-11T13:33:00.486Z,98396.80
2023-01-11T13:37:26.566Z,98401.00
2023-01-11T13:41:59.510Z,98398.20
2023-01-11T13:46:23.418Z,98407.46
2023-01-11T13:50:50.171Z,98411.65
2023-01-11T13:55:30.594Z,98414.06
2023-01-11T13:59:57.040Z,98415.46
2023-01-11T14:04:25.250Z,98420.86
2023-01-11T14:09:13.523Z,98421.98
2023-01-11T14:13:41.725Z,98422.56
2023-01-11T14:18:11.586Z,98429.41
2023-01-11T14:22:40.219Z,98427.77
2023-01-11T14:27:06.046Z,98433.84
2023-01-11T14:31:38.864Z,98433.13
2023-01-11T14:36:03.349Z,98427.44
2023-01-11T14:40:37.317Z,98427.77
2023-01-11T14:44:59.651Z,98423.00
2023-01-11T14:49:40.165Z,98430.57
2023-01-11T14:54:04.166Z,98432.08
2023-01-11T14:58:43.204Z,98438.34
2023-01-11T15:03:10.526Z,98434.67
2023-01-11T15:07:35.376Z,98430.64
2023-01-11T15:12:17.471Z,98436.88
2023-01-11T15:16:45.945Z,98437.27
2023-01-11T15:21:11.093Z,98431.98
2023-01-11T15:25:37.930Z,98429.08
2023-01-11T15:30:03.013Z,98435.22
2023-01-11T15:34:27.027Z,98433.59
2023-01-11T15:38:53.772Z,98429.19
2023-01-11T15:43:29.467Z,98422.14
2023-01-11T15:47:56.412Z,98429.19
2023-01-11T15:52:19.983Z,98436.92
2023-01-11T15:56:42.503Z,98441.42
2023-01-11T16:01:15.564Z,98438.21
2023-01-11T16:06:06.969Z,98430.95
2023-01-11T16:10:44.943Z,98420.92
2023-01-11T16:15:18.674Z,98419.27
2023-01-11T16:20:03.585Z,98425.78
2023-01-11T16:24:27.527Z,98434.30
2023-01-11T16:28:54.236Z,98432.59
2023-01-11T16:33:18.110Z,98439.41
2023-01-11T16:37:42.725Z,98441.70
2023-01-11T16:42:11.234Z,98438.59
2023-01-11T16:46:41.895Z,98436.23
2023-01-11T16:51:14.979Z,98439.67
2023-01-11T16:55:39.138Z,98435.71
2023-01-11T17:00:02.974Z,98428.98
2023-01-11T17:04:29.512Z,98422.68
2023-01-11T17:09:10.953Z,98420.25
2023-01-11T17:13:37.409Z,98418.38
2023-01-11T17:18:01.267Z,98412.48
2023-01-11T17:22:27.481Z,98420.00
2023-01-11T17:26:54.132Z,98431.02
2023-01-11T17:31:17.158Z,98435.98
2023-01-11T17:35:41.299Z,98430.13
2023-01-11T17:40:11.989Z,98434.52
2023-01-11T17:44:35.655Z,98442.29
2023-01-11T17:49:00.308Z,98445.27
2023-01-11T17:53:23.257Z,98438.47
2023-01-11T17:57:48.249Z,98443.00
2023-01-11T18:02:16.219Z,98451.81
2023-01-11T18:06:40.196Z,98454.02
2023-01-11T18:11:10.164Z,98464.41
2023-01-11T18:15:39.757Z,98474.61
2023-01-11T18:20:04.688Z,98479.45
2023-01-11T18:24:28.687Z,98487.12
2023-01-11T18:28:52.706Z,98491.55
2023-01-11T18:33:17.695Z,98499.90
2023-01-11T18:37:41.579Z,98499.30
2023-01-11T18:41:57.744Z,98503.06
2023-01-11T18:46:21.939Z,98503.83
2023-01-11T18:50:42.264Z,98504.00
2023-01-11T18:55:06.280Z,98508.27
2023-01-11T18:59:30.255Z,98517.23
2023-01-11T19:03:54.127Z,98519.52
2023-01-11T19:08:17.780Z,98519.86
2023-01-11T19:12:41.873Z,98522.96
2023-01-11T19:17:08.019Z,98525.20
2023-01-11T19:21:31.944Z,98525.14
2023-01-11T19:25:55.888Z,98530.73
2023-01-11T19:30:11.234Z,98523.75
2023-01-11T19:34:35.436Z,98522.93
2023-01-11T19:39:02.080Z,98533.66
2023-01-11T19:43:05.706Z,98535.34
2023-01-11T19:47:29.735Z,98535.55
2023-01-11T19:51:53.569Z,98536.52
2023-01-11T19:56:18.775Z,98532.61
2023-01-11T20:00:43.790Z,98531.37
2023-01-11T20:05:09.697Z,98531.10
2023-01-11T20:09:34.997Z,98532.71
2023-01-11T20:13:58.866Z,98535.59
2023-01-11T20:18:15.429Z,98535.40
2023-01-11T20:22:39.671Z,98540.57
2023-01-11T20:27:05.687Z,98543.51
2023-01-11T20:31:30.711Z,98539.27
2023-01-11T20:35:54.667Z,98546.48
2023-01-11T20:40:18.600Z,98539.38
2023-01-11T20:44:42.453Z,98539.06
2023-01-11T20:49:07.026Z,98549.23
2023-01-11T20:53:30.957Z,98550.88
2023-01-11T20:57:56.152Z,98547.33
2023-01-11T21:02:22.239Z,98543.05
2023-01-11T21:06:46.215Z,98548.02
2023-01-11T21:11:11.385Z,98551.40
2023-01-11T21:15:35.332Z,98546.66
2023-01-11T21:19:59.308Z,98544.83
2023-01-11T21:24:29.743Z,98541.02
2023-01-11T21:28:53.582Z,98543.40
2023-01-11T21:33:17.550Z,98539.40
2023-01-11T21:37:42.328Z,98534.65
2023-01-11T21:42:15.485Z,98531.98
2023-01-11T21:46:42.463Z,98533.30
2023-01-11T21:51:06.592Z,98545.13
2023-01-11T21:55:33.493Z,98555.67
2023-01-11T21:59:59.548Z,98568.75
2023-01-11T22:04:23.603Z,98578.13
2023-01-11T22:08:49.917Z,98592.23
2023-01-11T22:13:15.812Z,98589.94
2023-01-11T22:17:40.739Z,98596.48
2023-01-11T22:22:04.465Z,98596.39
2023-01-11T22:26:29.447Z,98602.22
2023-01-11T22:30:53.399Z,98615.14
2023-01-11T22:35:18.328Z,98615.01
2023-01-11T22:39:44.290Z,98607.86
2023-01-11T22:44:08.120Z,98610.59
2023-01-11T22:48:32.300Z,98601.98
2023-01-11T22:52:56.154Z,98591.80
2023-01-11T22:57:21.121Z,98600.03
2023-01-11T23:01:53.869Z,98598.45
2023-01-11T23:06:17.421Z,98597.34
2023-01-11T23:10:42.496Z,98596.67
2023-01-11T23:15:06.416Z,98579.90
2023-01-11T23:19:30.371Z,98589.66
2023-01-11T23:23:54.280Z,98594.45
2023-01-11T23:28:18.203Z,98591.95
2023-01-11T23:32:42.086Z,98578.98
2023-01-11T23:37:07.156Z,98581.61
2023-01-11T23:41:29.606Z,98574.31
2023-01-11T23:45:54.985Z,98572.69
2023-01-11T23:50:20.940Z,98566.57
2023-01-11T23:54:44.956Z,98564.27
2023-01-11T23:59:08.888Z,98555.98
